sensor_id;sensor_type;location;lat;lon;timestamp;temperature;humidity
32139;DHT22;18644;48.700;9.210;2024-02-28T00:01:26;11.00;58.90
32139;DHT22;18644;48.700;9.210;2024-02-28T00:03:53;11.00;59.00
32139;DHT22;18644;48.700;9.210;2024-02-28T00:06:20;11.00;59.00
32139;DHT22;18644;48.700;9.210;2024-02-28T00:08:47;11.00;59.00
32139;DHT22;18644;48.700;9.210;2024-02-28T00:11:16;11.00;59.00
32139;DHT22;18644;48.700;9.210;2024-02-28T00:13:44;11.00;59.00
32139;DHT22;18644;48.700;9.210;2024-02-28T00:16:11;11.00;59.00
32139;DHT22;18644;48.700;9.210;2024-02-28T00:18:38;11.00;59.00
32139;DHT22;18644;48.700;9.210;2024-02-28T00:21:05;11.00;59.00
32139;DHT22;18644;48.700;9.210;2024-02-28T00:23:31;11.00;59.00
32139;DHT22;18644;48.700;9.210;2024-02-28T00:25:59;11.00;59.00
32139;DHT22;18644;48.700;9.210;2024-02-28T00:28:27;11.10;59.10
32139;DHT22;18644;48.700;9.210;2024-02-28T00:30:55;11.00;59.10
32139;DHT22;18644;48.700;9.210;2024-02-28T00:33:22;11.00;59.00
32139;DHT22;18644;48.700;9.210;2024-02-28T00:35:48;11.00;59.00
32139;DHT22;18644;48.700;9.210;2024-02-28T00:38:15;11.00;59.00
32139;DHT22;18644;48.700;9.210;2024-02-28T00:40:43;11.00;59.00
32139;DHT22;18644;48.700;9.210;2024-02-28T00:43:10;11.00;58.90
32139;DHT22;18644;48.700;9.210;2024-02-28T00:45:36;11.00;58.90
32139;DHT22;18644;48.700;9.210;2024-02-28T00:48:05;11.00;58.90
32139;DHT22;18644;48.700;9.210;2024-02-28T00:50:33;11.00;58.90
32139;DHT22;18644;48.700;9.210;2024-02-28T00:53:00;11.00;58.90
32139;DHT22;18644;48.700;9.210;2024-02-28T00:55:26;11.00;58.90
32139;DHT22;18644;48.700;9.210;2024-02-28T00:57:53;11.00;58.90
32139;DHT22;18644;48.700;9.210;2024-02-28T01:00:20;11.00;58.90
32139;DHT22;18644;48.700;9.210;2024-02-28T01:02:47;11.00;58.90
32139;DHT22;18644;48.700;9.210;2024-02-28T01:05:15;11.00;58.90
32139;DHT22;18644;48.700;9.210;2024-02-28T01:07:42;11.00;58.90
32139;DHT22;18644;48.700;9.210;2024-02-28T01:10:09;11.00;58.90
32139;DHT22;18644;48.700;9.210;2024-02-28T01:12:36;11.00;58.90
32139;DHT22;18644;48.700;9.210;2024-02-28T01:15:04;11.00;58.90
32139;DHT22;18644;48.700;9.210;2024-02-28T01:17:31;11.00;58.90
32139;DHT22;18644;48.700;9.210;2024-02-28T01:19:58;11.00;58.90
32139;DHT22;18644;48.700;9.210;2024-02-28T01:22:26;11.00;58.90
32139;DHT22;18644;48.700;9.210;2024-02-28T01:24:53;11.00;58.90
32139;DHT22;18644;48.700;9.210;2024-02-28T01:27:20;11.00;58.90
32139;DHT22;18644;48.700;9.210;2024-02-28T01:29:46;11.00;58.90
32139;DHT22;18644;48.700;9.210;2024-02-28T01:32:13;11.00;58.90
32139;DHT22;18644;48.700;9.210;2024-02-28T01:34:40;11.00;58.90
32139;DHT22;18644;48.700;9.210;2024-02-28T01:37:07;11.00;58.90
32139;DHT22;18644;48.700;9.210;2024-02-28T01:39:35;11.00;58.90
32139;DHT22;18644;48.700;9.210;2024-02-28T01:42:02;11.00;59.00
32139;DHT22;18644;48.700;9.210;2024-02-28T01:44:29;11.00;59.00
32139;DHT22;18644;48.700;9.210;2024-02-28T01:46:56;11.00;59.00
32139;DHT22;18644;48.700;9.210;2024-02-28T01:49:24;11.00;59.00
32139;DHT22;18644;48.700;9.210;2024-02-28T01:51:53;11.00;59.00
32139;DHT22;18644;48.700;9.210;2024-02-28T01:54:22;10.90;58.80
32139;DHT22;18644;48.700;9.210;2024-02-28T01:56:50;10.90;58.80
32139;DHT22;18644;48.700;9.210;2024-02-28T01:59:18;10.90;58.80
32139;DHT22;18644;48.700;9.210;2024-02-28T02:01:45;10.90;58.80
32139;DHT22;18644;48.700;9.210;2024-02-28T02:04:12;10.80;58.80
32139;DHT22;18644;48.700;9.210;2024-02-28T02:06:42;10.80;58.80
32139;DHT22;18644;48.700;9.210;2024-02-28T02:09:10;10.80;58.80
32139;DHT22;18644;48.700;9.210;2024-02-28T02:11:38;10.80;58.90
32139;DHT22;18644;48.700;9.210;2024-02-28T02:14:06;10.80;58.90
32139;DHT22;18644;48.700;9.210;2024-02-28T02:16:34;10.80;58.90
32139;DHT22;18644;48.700;9.210;2024-02-28T02:19:00;10.80;58.90
32139;DHT22;18644;48.700;9.210;2024-02-28T02:21:30;10.70;59.50
32139;DHT22;18644;48.700;9.210;2024-02-28T02:24:00;10.80;58.90
32139;DHT22;18644;48.700;9.210;2024-02-28T02:26:27;10.80;58.90
32139;DHT22;18644;48.700;9.210;2024-02-28T02:28:54;10.70;58.80
32139;DHT22;18644;48.700;9.210;2024-02-28T02:31:20;10.70;58.90
32139;DHT22;18644;48.700;9.210;2024-02-28T02:33:47;10.80;58.90
32139;DHT22;18644;48.700;9.210;2024-02-28T02:36:14;10.80;58.90
32139;DHT22;18644;48.700;9.210;2024-02-28T02:38:41;10.70;58.80
32139;DHT22;18644;48.700;9.210;2024-02-28T02:41:09;10.70;58.90
32139;DHT22;18644;48.700;9.210;2024-02-28T02:43:36;10.70;58.90
32139;DHT22;18644;48.700;9.210;2024-02-28T02:46:03;10.80;58.90
32139;DHT22;18644;48.700;9.210;2024-02-28T02:48:30;10.80;58.90
32139;DHT22;18644;48.700;9.210;2024-02-28T02:50:57;10.80;58.90
32139;DHT22;18644;48.700;9.210;2024-02-28T02:53:24;10.70;58.80
32139;DHT22;18644;48.700;9.210;2024-02-28T02:55:51;10.70;58.80
32139;DHT22;18644;48.700;9.210;2024-02-28T02:58:20;10.80;58.80
32139;DHT22;18644;48.700;9.210;2024-02-28T03:00:47;10.70;58.80
32139;DHT22;18644;48.700;9.210;2024-02-28T03:03:15;10.70;58.70
32139;DHT22;18644;48.700;9.210;2024-02-28T03:05:42;10.70;58.70
32139;DHT22;18644;48.700;9.210;2024-02-28T03:08:09;10.70;58.60
32139;DHT22;18644;48.700;9.210;2024-02-28T03:10:36;10.70;58.60
32139;DHT22;18644;48.700;9.210;2024-02-28T03:13:03;10.70;58.60
32139;DHT22;18644;48.700;9.210;2024-02-28T03:15:33;10.60;58.50
32139;DHT22;18644;48.700;9.210;2024-02-28T03:18:00;10.60;58.50
32139;DHT22;18644;48.700;9.210;2024-02-28T03:20:27;10.60;58.60
32139;DHT22;18644;48.700;9.210;2024-02-28T03:22:54;10.60;58.60
32139;DHT22;18644;48.700;9.210;2024-02-28T03:25:21;10.60;58.60
32139;DHT22;18644;48.700;9.210;2024-02-28T03:27:48;10.60;58.70
32139;DHT22;18644;48.700;9.210;2024-02-28T03:30:15;10.60;58.80
32139;DHT22;18644;48.700;9.210;2024-02-28T03:32:43;10.60;58.80
32139;DHT22;18644;48.700;9.210;2024-02-28T03:35:10;10.60;58.80
32139;DHT22;18644;48.700;9.210;2024-02-28T03:37:37;10.60;58.80
32139;DHT22;18644;48.700;9.210;2024-02-28T03:40:04;10.60;58.80
32139;DHT22;18644;48.700;9.210;2024-02-28T03:42:32;10.60;58.90
32139;DHT22;18644;48.700;9.210;2024-02-28T03:44:59;10.60;58.90
32139;DHT22;18644;48.700;9.210;2024-02-28T03:47:26;10.60;58.90
32139;DHT22;18644;48.700;9.210;2024-02-28T03:49:54;10.60;58.90
32139;DHT22;18644;48.700;9.210;2024-02-28T03:52:22;10.60;58.90
32139;DHT22;18644;48.700;9.210;2024-02-28T03:54:49;10.60;58.90
32139;DHT22;18644;48.700;9.210;2024-02-28T03:57:16;10.60;58.90
32139;DHT22;18644;48.700;9.210;2024-02-28T03:59:43;10.60;58.90
32139;DHT22;18644;48.700;9.210;2024-02-28T04:02:10;10.60;58.90
32139;DHT22;18644;48.700;9.210;2024-02-28T04:04:37;10.60;59.00
32139;DHT22;18644;48.700;9.210;2024-02-28T04:07:05;10.60;59.00
32139;DHT22;18644;48.700;9.210;2024-02-28T04:09:32;10.60;59.00
32139;DHT22;18644;48.700;9.210;2024-02-28T04:11:59;10.70;59.00
32139;DHT22;18644;48.700;9.210;2024-02-28T04:14:27;10.60;59.00
32139;DHT22;18644;48.700;9.210;2024-02-28T04:16:53;10.60;59.00
32139;DHT22;18644;48.700;9.210;2024-02-28T04:19:20;10.60;59.00
32139;DHT22;18644;48.700;9.210;2024-02-28T04:21:47;10.60;59.10
32139;DHT22;18644;48.700;9.210;2024-02-28T04:24:15;10.60;59.70
32139;DHT22;18644;48.700;9.210;2024-02-28T04:26:42;10.60;59.20
32139;DHT22;18644;48.700;9.210;2024-02-28T04:29:09;10.60;59.30
32139;DHT22;18644;48.700;9.210;2024-02-28T04:31:39;10.50;59.20
32139;DHT22;18644;48.700;9.210;2024-02-28T04:34:06;10.50;59.30
32139;DHT22;18644;48.700;9.210;2024-02-28T04:36:33;10.50;59.30
32139;DHT22;18644;48.700;9.210;2024-02-28T04:38:59;10.50;59.40
32139;DHT22;18644;48.700;9.210;2024-02-28T04:41:28;10.40;59.30
32139;DHT22;18644;48.700;9.210;2024-02-28T04:43:55;10.40;59.40
32139;DHT22;18644;48.700;9.210;2024-02-28T04:46:22;10.40;59.40
32139;DHT22;18644;48.700;9.210;2024-02-28T04:48:48;10.30;59.40
32139;DHT22;18644;48.700;9.210;2024-02-28T04:51:16;10.30;59.50
32139;DHT22;18644;48.700;9.210;2024-02-28T04:53:43;10.30;59.50
32139;DHT22;18644;48.700;9.210;2024-02-28T04:56:10;10.20;59.50
32139;DHT22;18644;48.700;9.210;2024-02-28T04:58:38;10.20;59.50
32139;DHT22;18644;48.700;9.210;2024-02-28T05:01:05;10.20;59.60
32139;DHT22;18644;48.700;9.210;2024-02-28T05:03:32;10.20;59.60
32139;DHT22;18644;48.700;9.210;2024-02-28T05:05:59;10.10;59.70
32139;DHT22;18644;48.700;9.210;2024-02-28T05:08:25;10.10;59.60
32139;DHT22;18644;48.700;9.210;2024-02-28T05:10:54;10.10;59.70
32139;DHT22;18644;48.700;9.210;2024-02-28T05:13:21;10.00;59.80
32139;DHT22;18644;48.700;9.210;2024-02-28T05:15:51;10.00;59.80
32139;DHT22;18644;48.700;9.210;2024-02-28T05:18:17;10.00;60.00
32139;DHT22;18644;48.700;9.210;2024-02-28T05:20:44;10.00;60.10
32139;DHT22;18644;48.700;9.210;2024-02-28T05:23:11;10.00;60.10
32139;DHT22;18644;48.700;9.210;2024-02-28T05:25:38;10.00;60.10
32139;DHT22;18644;48.700;9.210;2024-02-28T05:28:06;10.00;60.00
32139;DHT22;18644;48.700;9.210;2024-02-28T05:30:32;10.00;60.10
32139;DHT22;18644;48.700;9.210;2024-02-28T05:33:01;10.00;60.10
32139;DHT22;18644;48.700;9.210;2024-02-28T05:35:27;10.00;60.10
32139;DHT22;18644;48.700;9.210;2024-02-28T05:37:54;9.90;60.80
32139;DHT22;18644;48.700;9.210;2024-02-28T05:40:21;9.90;60.00
32139;DHT22;18644;48.700;9.210;2024-02-28T05:42:48;9.90;60.10
32139;DHT22;18644;48.700;9.210;2024-02-28T05:45:15;9.90;60.10
32139;DHT22;18644;48.700;9.210;2024-02-28T05:47:41;9.90;60.10
32139;DHT22;18644;48.700;9.210;2024-02-28T05:50:10;9.90;60.30
32139;DHT22;18644;48.700;9.210;2024-02-28T05:52:38;9.90;60.40
32139;DHT22;18644;48.700;9.210;2024-02-28T05:55:08;9.90;60.30
32139;DHT22;18644;48.700;9.210;2024-02-28T05:57:35;9.90;60.50
32139;DHT22;18644;48.700;9.210;2024-02-28T06:00:02;9.90;60.40
32139;DHT22;18644;48.700;9.210;2024-02-28T06:02:35;9.90;60.30
32139;DHT22;18644;48.700;9.210;2024-02-28T06:05:02;9.90;60.30
32139;DHT22;18644;48.700;9.210;2024-02-28T06:07:31;9.90;60.30
32139;DHT22;18644;48.700;9.210;2024-02-28T06:09:58;9.90;60.30
32139;DHT22;18644;48.700;9.210;2024-02-28T06:12:25;9.90;60.40
32139;DHT22;18644;48.700;9.210;2024-02-28T06:14:52;9.90;60.40
32139;DHT22;18644;48.700;9.210;2024-02-28T06:17:20;9.90;60.40
32139;DHT22;18644;48.700;9.210;2024-02-28T06:19:47;9.90;60.40
32139;DHT22;18644;48.700;9.210;2024-02-28T06:22:14;9.90;60.40
32139;DHT22;18644;48.700;9.210;2024-02-28T06:24:42;9.90;60.30
32139;DHT22;18644;48.700;9.210;2024-02-28T06:27:09;9.90;60.40
32139;DHT22;18644;48.700;9.210;2024-02-28T06:29:38;9.90;60.40
32139;DHT22;18644;48.700;9.210;2024-02-28T06:32:05;9.90;60.40
32139;DHT22;18644;48.700;9.210;2024-02-28T06:34:32;9.90;60.50
32139;DHT22;18644;48.700;9.210;2024-02-28T06:36:59;9.90;60.60
32139;DHT22;18644;48.700;9.210;2024-02-28T06:39:26;9.90;60.60
32139;DHT22;18644;48.700;9.210;2024-02-28T06:41:54;9.90;60.60
32139;DHT22;18644;48.700;9.210;2024-02-28T06:44:21;9.90;60.60
32139;DHT22;18644;48.700;9.210;2024-02-28T06:46:47;9.90;60.60
32139;DHT22;18644;48.700;9.210;2024-02-28T06:49:14;9.90;60.40
32139;DHT22;18644;48.700;9.210;2024-02-28T06:54:09;9.90;60.30
32139;DHT22;18644;48.700;9.210;2024-02-28T06:56:36;9.90;60.30
32139;DHT22;18644;48.700;9.210;2024-02-28T06:59:05;9.90;60.40
32139;DHT22;18644;48.700;9.210;2024-02-28T07:01:32;9.80;60.50
32139;DHT22;18644;48.700;9.210;2024-02-28T07:03:59;9.80;60.50
32139;DHT22;18644;48.700;9.210;2024-02-28T07:06:27;9.90;60.70
32139;DHT22;18644;48.700;9.210;2024-02-28T07:08:54;9.80;60.60
32139;DHT22;18644;48.700;9.210;2024-02-28T07:11:21;9.80;60.60
32139;DHT22;18644;48.700;9.210;2024-02-28T07:13:48;9.80;60.70
32139;DHT22;18644;48.700;9.210;2024-02-28T07:16:16;9.90;60.90
32139;DHT22;18644;48.700;9.210;2024-02-28T07:18:43;9.80;60.90
32139;DHT22;18644;48.700;9.210;2024-02-28T07:21:10;9.80;60.90
32139;DHT22;18644;48.700;9.210;2024-02-28T07:23:39;9.90;61.00
32139;DHT22;18644;48.700;9.210;2024-02-28T07:26:06;10.00;61.10
32139;DHT22;18644;48.700;9.210;2024-02-28T07:28:33;10.00;61.10
32139;DHT22;18644;48.700;9.210;2024-02-28T07:31:00;10.00;61.20
32139;DHT22;18644;48.700;9.210;2024-02-28T07:33:28;10.00;61.20
32139;DHT22;18644;48.700;9.210;2024-02-28T07:35:55;10.10;61.30
32139;DHT22;18644;48.700;9.210;2024-02-28T07:38:26;10.10;61.30
32139;DHT22;18644;48.700;9.210;2024-02-28T07:40:54;10.10;61.20
32139;DHT22;18644;48.700;9.210;2024-02-28T07:43:20;10.20;61.20
32139;DHT22;18644;48.700;9.210;2024-02-28T07:45:47;10.20;61.00
32139;DHT22;18644;48.700;9.210;2024-02-28T07:48:14;10.20;60.80
32139;DHT22;18644;48.700;9.210;2024-02-28T07:50:44;10.20;60.60
32139;DHT22;18644;48.700;9.210;2024-02-28T07:53:11;10.20;60.40
32139;DHT22;18644;48.700;9.210;2024-02-28T07:55:38;10.20;60.40
32139;DHT22;18644;48.700;9.210;2024-02-28T07:58:05;10.20;60.40
32139;DHT22;18644;48.700;9.210;2024-02-28T08:00:32;10.20;60.40
32139;DHT22;18644;48.700;9.210;2024-02-28T08:02:59;10.20;60.50
32139;DHT22;18644;48.700;9.210;2024-02-28T08:05:26;10.20;60.70
32139;DHT22;18644;48.700;9.210;2024-02-28T08:07:54;10.20;60.60
32139;DHT22;18644;48.700;9.210;2024-02-28T08:10:21;10.20;60.40
32139;DHT22;18644;48.700;9.210;2024-02-28T08:12:49;10.20;60.20
32139;DHT22;18644;48.700;9.210;2024-02-28T08:15:16;10.20;60.30
32139;DHT22;18644;48.700;9.210;2024-02-28T08:17:43;10.20;60.20
32139;DHT22;18644;48.700;9.210;2024-02-28T08:20:10;10.20;60.00
32139;DHT22;18644;48.700;9.210;2024-02-28T08:22:37;10.20;60.00
32139;DHT22;18644;48.700;9.210;2024-02-28T08:25:06;10.20;59.90
32139;DHT22;18644;48.700;9.210;2024-02-28T08:27:36;10.20;60.00
32139;DHT22;18644;48.700;9.210;2024-02-28T08:30:05;10.20;59.90
32139;DHT22;18644;48.700;9.210;2024-02-28T08:32:32;10.30;59.90
32139;DHT22;18644;48.700;9.210;2024-02-28T08:35:00;10.30;59.90
32139;DHT22;18644;48.700;9.210;2024-02-28T08:37:27;10.30;59.90
32139;DHT22;18644;48.700;9.210;2024-02-28T08:39:54;10.40;59.80
32139;DHT22;18644;48.700;9.210;2024-02-28T08:42:24;10.50;59.80
32139;DHT22;18644;48.700;9.210;2024-02-28T08:44:51;10.50;59.70
32139;DHT22;18644;48.700;9.210;2024-02-28T08:47:22;10.50;59.60
32139;DHT22;18644;48.700;9.210;2024-02-28T08:49:50;10.50;59.50
32139;DHT22;18644;48.700;9.210;2024-02-28T08:52:17;10.60;59.50
32139;DHT22;18644;48.700;9.210;2024-02-28T08:54:44;10.60;59.50
32139;DHT22;18644;48.700;9.210;2024-02-28T08:57:11;10.60;59.50
32139;DHT22;18644;48.700;9.210;2024-02-28T08:59:39;10.60;59.50
32139;DHT22;18644;48.700;9.210;2024-02-28T09:02:06;10.70;59.50
32139;DHT22;18644;48.700;9.210;2024-02-28T09:04:33;10.70;59.40
32139;DHT22;18644;48.700;9.210;2024-02-28T09:07:00;10.70;59.40
32139;DHT22;18644;48.700;9.210;2024-02-28T09:09:27;10.80;59.50
32139;DHT22;18644;48.700;9.210;2024-02-28T09:11:55;10.80;59.40
32139;DHT22;18644;48.700;9.210;2024-02-28T09:14:22;10.80;59.40
32139;DHT22;18644;48.700;9.210;2024-02-28T09:16:50;10.80;59.30
32139;DHT22;18644;48.700;9.210;2024-02-28T09:19:17;10.80;59.30
32139;DHT22;18644;48.700;9.210;2024-02-28T09:21:44;10.80;59.30
32139;DHT22;18644;48.700;9.210;2024-02-28T09:24:12;10.80;59.30
32139;DHT22;18644;48.700;9.210;2024-02-28T09:26:39;10.80;59.30
32139;DHT22;18644;48.700;9.210;2024-02-28T09:29:06;10.80;59.30
32139;DHT22;18644;48.700;9.210;2024-02-28T09:31:33;10.80;59.20
32139;DHT22;18644;48.700;9.210;2024-02-28T09:34:01;10.80;59.00
32139;DHT22;18644;48.700;9.210;2024-02-28T09:36:32;10.80;59.00
32139;DHT22;18644;48.700;9.210;2024-02-28T09:38:59;10.80;59.10
32139;DHT22;18644;48.700;9.210;2024-02-28T09:41:26;10.70;59.30
32139;DHT22;18644;48.700;9.210;2024-02-28T09:43:54;10.70;59.20
32139;DHT22;18644;48.700;9.210;2024-02-28T09:46:21;10.70;59.30
32139;DHT22;18644;48.700;9.210;2024-02-28T09:48:48;10.70;59.40
32139;DHT22;18644;48.700;9.210;2024-02-28T09:51:18;10.70;59.40
32139;DHT22;18644;48.700;9.210;2024-02-28T09:53:50;10.70;59.40
32139;DHT22;18644;48.700;9.210;2024-02-28T09:56:17;10.70;59.30
32139;DHT22;18644;48.700;9.210;2024-02-28T09:58:44;10.70;59.30
32139;DHT22;18644;48.700;9.210;2024-02-28T10:01:14;10.80;59.30
32139;DHT22;18644;48.700;9.210;2024-02-28T10:03:44;10.80;59.30
32139;DHT22;18644;48.700;9.210;2024-02-28T10:06:11;10.80;59.30
32139;DHT22;18644;48.700;9.210;2024-02-28T10:08:40;10.80;59.30
32139;DHT22;18644;48.700;9.210;2024-02-28T10:11:07;10.80;59.30
32139;DHT22;18644;48.700;9.210;2024-02-28T10:13:34;10.90;59.40
32139;DHT22;18644;48.700;9.210;2024-02-28T10:16:02;10.90;59.30
32139;DHT22;18644;48.700;9.210;2024-02-28T10:18:33;11.00;59.20
32139;DHT22;18644;48.700;9.210;2024-02-28T10:20:59;11.00;59.00
32139;DHT22;18644;48.700;9.210;2024-02-28T10:23:26;11.00;59.00
32139;DHT22;18644;48.700;9.210;2024-02-28T10:25:55;11.00;59.10
32139;DHT22;18644;48.700;9.210;2024-02-28T10:28:21;11.10;59.20
32139;DHT22;18644;48.700;9.210;2024-02-28T10:30:48;11.10;59.00
32139;DHT22;18644;48.700;9.210;2024-02-28T10:33:16;11.20;59.10
32139;DHT22;18644;48.700;9.210;2024-02-28T10:35:45;11.20;59.00
32139;DHT22;18644;48.700;9.210;2024-02-28T10:38:17;11.20;58.90
32139;DHT22;18644;48.700;9.210;2024-02-28T10:40:44;11.30;58.90
32139;DHT22;18644;48.700;9.210;2024-02-28T10:43:15;11.40;58.90
32139;DHT22;18644;48.700;9.210;2024-02-28T10:45:43;11.40;58.70
32139;DHT22;18644;48.700;9.210;2024-02-28T10:48:11;11.40;58.50
32139;DHT22;18644;48.700;9.210;2024-02-28T10:50:40;11.50;58.30
32139;DHT22;18644;48.700;9.210;2024-02-28T10:53:14;11.50;58.10
32139;DHT22;18644;48.700;9.210;2024-02-28T10:55:41;11.50;58.20
32139;DHT22;18644;48.700;9.210;2024-02-28T10:58:10;11.50;58.30
32139;DHT22;18644;48.700;9.210;2024-02-28T11:00:39;11.50;58.40
32139;DHT22;18644;48.700;9.210;2024-02-28T11:03:10;11.50;58.30
32139;DHT22;18644;48.700;9.210;2024-02-28T11:05:38;11.50;58.00
32139;DHT22;18644;48.700;9.210;2024-02-28T11:08:08;11.50;57.90
32139;DHT22;18644;48.700;9.210;2024-02-28T11:10:39;11.50;58.00
32139;DHT22;18644;48.700;9.210;2024-02-28T11:13:07;11.50;58.30
32139;DHT22;18644;48.700;9.210;2024-02-28T11:15:34;11.60;58.50
32139;DHT22;18644;48.700;9.210;2024-02-28T11:18:09;11.60;58.60
32139;DHT22;18644;48.700;9.210;2024-02-28T11:20:36;11.70;58.40
32139;DHT22;18644;48.700;9.210;2024-02-28T11:23:05;11.70;58.20
32139;DHT22;18644;48.700;9.210;2024-02-28T11:25:34;11.70;57.80
32139;DHT22;18644;48.700;9.210;2024-02-28T11:28:01;11.70;57.70
32139;DHT22;18644;48.700;9.210;2024-02-28T11:30:28;11.70;57.70
32139;DHT22;18644;48.700;9.210;2024-02-28T11:32:55;11.70;57.50
32139;DHT22;18644;48.700;9.210;2024-02-28T11:35:25;11.70;57.30
32139;DHT22;18644;48.700;9.210;2024-02-28T11:37:54;11.70;57.00
32139;DHT22;18644;48.700;9.210;2024-02-28T11:40:23;11.60;57.10
32139;DHT22;18644;48.700;9.210;2024-02-28T11:42:50;11.50;57.20
32139;DHT22;18644;48.700;9.210;2024-02-28T11:45:17;11.50;57.40
32139;DHT22;18644;48.700;9.210;2024-02-28T11:47:44;11.50;57.40
32139;DHT22;18644;48.700;9.210;2024-02-28T11:50:11;11.50;57.40
32139;DHT22;18644;48.700;9.210;2024-02-28T11:52:41;11.50;57.50
32139;DHT22;18644;48.700;9.210;2024-02-28T11:55:09;11.50;57.30
32139;DHT22;18644;48.700;9.210;2024-02-28T11:57:37;11.50;57.20
32139;DHT22;18644;48.700;9.210;2024-02-28T12:00:05;11.50;57.30
32139;DHT22;18644;48.700;9.210;2024-02-28T12:02:34;11.50;57.40
32139;DHT22;18644;48.700;9.210;2024-02-28T12:05:02;11.50;57.50
32139;DHT22;18644;48.700;9.210;2024-02-28T12:07:30;11.50;57.40
32139;DHT22;18644;48.700;9.210;2024-02-28T12:09:59;11.50;57.40
32139;DHT22;18644;48.700;9.210;2024-02-28T12:12:27;11.50;57.40
32139;DHT22;18644;48.700;9.210;2024-02-28T12:14:58;11.50;57.50
32139;DHT22;18644;48.700;9.210;2024-02-28T12:17:26;11.60;57.60
32139;DHT22;18644;48.700;9.210;2024-02-28T12:19:53;11.60;57.60
32139;DHT22;18644;48.700;9.210;2024-02-28T12:22:20;11.60;57.50
32139;DHT22;18644;48.700;9.210;2024-02-28T12:24:47;11.60;57.30
32139;DHT22;18644;48.700;9.210;2024-02-28T12:27:15;11.60;57.10
32139;DHT22;18644;48.700;9.210;2024-02-28T12:29:42;11.70;57.10
32139;DHT22;18644;48.700;9.210;2024-02-28T12:32:10;11.60;57.00
32139;DHT22;18644;48.700;9.210;2024-02-28T12:34:37;11.60;57.10
32139;DHT22;18644;48.700;9.210;2024-02-28T12:37:04;11.60;57.30
32139;DHT22;18644;48.700;9.210;2024-02-28T12:39:31;11.60;57.20
32139;DHT22;18644;48.700;9.210;2024-02-28T12:41:59;11.60;57.20
32139;DHT22;18644;48.700;9.210;2024-02-28T12:44:28;11.70;57.20
32139;DHT22;18644;48.700;9.210;2024-02-28T12:46:54;11.70;57.10
32139;DHT22;18644;48.700;9.210;2024-02-28T12:49:21;11.70;57.00
32139;DHT22;18644;48.700;9.210;2024-02-28T12:51:48;11.70;57.00
32139;DHT22;18644;48.700;9.210;2024-02-28T12:54:17;11.70;57.10
32139;DHT22;18644;48.700;9.210;2024-02-28T12:56:46;11.80;57.10
32139;DHT22;18644;48.700;9.210;2024-02-28T12:59:13;11.70;57.00
32139;DHT22;18644;48.700;9.210;2024-02-28T13:01:41;11.70;56.90
32139;DHT22;18644;48.700;9.210;2024-02-28T13:04:08;11.70;57.00
32139;DHT22;18644;48.700;9.210;2024-02-28T13:06:35;11.80;56.90
32139;DHT22;18644;48.700;9.210;2024-02-28T13:09:02;11.70;56.80
32139;DHT22;18644;48.700;9.210;2024-02-28T13:11:30;11.70;56.80
32139;DHT22;18644;48.700;9.210;2024-02-28T13:13:57;11.80;56.90
32139;DHT22;18644;48.700;9.210;2024-02-28T13:16:23;11.70;56.90
32139;DHT22;18644;48.700;9.210;2024-02-28T13:18:52;11.80;56.90
32139;DHT22;18644;48.700;9.210;2024-02-28T13:21:19;11.70;57.00
32139;DHT22;18644;48.700;9.210;2024-02-28T13:23:45;11.80;57.10
32139;DHT22;18644;48.700;9.210;2024-02-28T13:26:12;11.80;57.00
32139;DHT22;18644;48.700;9.210;2024-02-28T13:28:43;11.80;57.00
32139;DHT22;18644;48.700;9.210;2024-02-28T13:31:10;11.80;56.90
32139;DHT22;18644;48.700;9.210;2024-02-28T13:33:37;11.80;56.90
32139;DHT22;18644;48.700;9.210;2024-02-28T13:36:06;11.80;56.80
32139;DHT22;18644;48.700;9.210;2024-02-28T13:38:33;11.80;56.70
32139;DHT22;18644;48.700;9.210;2024-02-28T13:41:00;11.80;56.60
32139;DHT22;18644;48.700;9.210;2024-02-28T13:43:27;11.80;56.70
32139;DHT22;18644;48.700;9.210;2024-02-28T13:45:54;11.70;56.60
32139;DHT22;18644;48.700;9.210;2024-02-28T13:48:26;11.70;56.60
32139;DHT22;18644;48.700;9.210;2024-02-28T13:50:54;11.70;56.60
32139;DHT22;18644;48.700;9.210;2024-02-28T13:53:23;11.80;56.80
32139;DHT22;18644;48.700;9.210;2024-02-28T13:55:50;11.70;56.70
32139;DHT22;18644;48.700;9.210;2024-02-28T13:58:18;11.70;56.70
32139;DHT22;18644;48.700;9.210;2024-02-28T14:00:46;11.70;56.60
32139;DHT22;18644;48.700;9.210;2024-02-28T14:03:14;11.70;56.70
32139;DHT22;18644;48.700;9.210;2024-02-28T14:05:41;11.70;56.70
32139;DHT22;18644;48.700;9.210;2024-02-28T14:08:10;11.70;56.70
32139;DHT22;18644;48.700;9.210;2024-02-28T14:10:39;11.70;56.60
32139;DHT22;18644;48.700;9.210;2024-02-28T14:13:06;11.70;56.60
32139;DHT22;18644;48.700;9.210;2024-02-28T14:15:33;11.70;56.60
32139;DHT22;18644;48.700;9.210;2024-02-28T14:18:01;11.70;56.70
32139;DHT22;18644;48.700;9.210;2024-02-28T14:20:29;11.70;56.70
32139;DHT22;18644;48.700;9.210;2024-02-28T14:22:56;11.70;56.70
32139;DHT22;18644;48.700;9.210;2024-02-28T14:25:23;11.70;56.50
32139;DHT22;18644;48.700;9.210;2024-02-28T14:27:52;11.70;56.60
32139;DHT22;18644;48.700;9.210;2024-02-28T14:30:19;11.60;56.60
32139;DHT22;18644;48.700;9.210;2024-02-28T14:32:48;11.70;56.70
32139;DHT22;18644;48.700;9.210;2024-02-28T14:35:15;11.70;56.70
32139;DHT22;18644;48.700;9.210;2024-02-28T14:37:42;11.70;56.70
32139;DHT22;18644;48.700;9.210;2024-02-28T14:40:10;11.70;56.70
32139;DHT22;18644;48.700;9.210;2024-02-28T14:42:37;11.60;56.70
32139;DHT22;18644;48.700;9.210;2024-02-28T14:45:07;11.70;56.90
32139;DHT22;18644;48.700;9.210;2024-02-28T14:47:35;11.70;56.90
32139;DHT22;18644;48.700;9.210;2024-02-28T14:50:02;11.70;56.90
32139;DHT22;18644;48.700;9.210;2024-02-28T14:52:29;11.60;56.80
32139;DHT22;18644;48.700;9.210;2024-02-28T14:54:56;11.70;56.70
32139;DHT22;18644;48.700;9.210;2024-02-28T14:57:24;11.70;56.70
32139;DHT22;18644;48.700;9.210;2024-02-28T14:59:51;11.60;56.60
32139;DHT22;18644;48.700;9.210;2024-02-28T15:02:20;11.70;56.70
32139;DHT22;18644;48.700;9.210;2024-02-28T15:04:47;11.60;56.50
32139;DHT22;18644;48.700;9.210;2024-02-28T15:07:15;11.60;56.30
32139;DHT22;18644;48.700;9.210;2024-02-28T15:09:42;11.60;56.30
32139;DHT22;18644;48.700;9.210;2024-02-28T15:12:09;11.50;56.30
32139;DHT22;18644;48.700;9.210;2024-02-28T15:14:36;11.50;56.20
32139;DHT22;18644;48.700;9.210;2024-02-28T15:17:03;11.40;56.20
32139;DHT22;18644;48.700;9.210;2024-02-28T15:19:31;11.40;56.30
32139;DHT22;18644;48.700;9.210;2024-02-28T15:21:58;11.30;56.50
32139;DHT22;18644;48.700;9.210;2024-02-28T15:24:25;11.30;56.70
32139;DHT22;18644;48.700;9.210;2024-02-28T15:26:52;11.30;56.80
32139;DHT22;18644;48.700;9.210;2024-02-28T15:29:19;11.30;56.90
32139;DHT22;18644;48.700;9.210;2024-02-28T15:31:47;11.30;57.10
32139;DHT22;18644;48.700;9.210;2024-02-28T15:34:14;11.20;56.90
32139;DHT22;18644;48.700;9.210;2024-02-28T15:36:42;11.30;56.90